Ridgetown, Canada
Current Conditions -  °F | °C
As of 9:03 AM on Tuesday 21 Oct 2014 (Local Time) from CYCK Reporting Station
Overcast Overcast  
Wind Chill: 42°   Ceiling: 1500
Heat Index: 48°   Visibility: 9mi
Dew Point: 46°   Wind: 15mph
Humidity: 93%   Direction: 340°NNW
Pressure: 29.93"   Gusts: NA
Location:  42.43°N, 81.88°W
Report Text: CYCK 211303Z AUTO 34013KT 9SM SCT008 OVC015 09/08 A2993 RMK SLP137
Loading
Personal Weather Stations






























Interactive Weather Map
Tropical Storm Tracking
New forecast layout! Learn more

10-Day Weather Forecast

Advertisements
Track Severe Weather on mobile